sensor_id;sensor_type;location;lat;lon;timestamp;pressure;altitude;pressure_sealevel;temperature;humidity
40794;BME280;26502;51.886;15.604;2024-03-06T00:01:16;101106.39;;;-0.61;70.73
40794;BME280;26502;51.886;15.604;2024-03-06T00:06:42;101111.98;;;-0.60;71.02
40794;BME280;26502;51.886;15.604;2024-03-06T00:12:08;101114.57;;;-0.53;71.11
40794;BME280;26502;51.886;15.604;2024-03-06T00:17:34;101116.00;;;-0.52;71.28
40794;BME280;26502;51.886;15.604;2024-03-06T00:23:00;101116.19;;;-0.60;71.19
40794;BME280;26502;51.886;15.604;2024-03-06T00:28:26;101128.19;;;-0.70;71.21
40794;BME280;26502;51.886;15.604;2024-03-06T00:33:52;101132.35;;;-0.71;71.37
40794;BME280;26502;51.886;15.604;2024-03-06T00:39:18;101140.83;;;-0.73;71.46
40794;BME280;26502;51.886;15.604;2024-03-06T00:44:45;101144.54;;;-0.80;71.61
40794;BME280;26502;51.886;15.604;2024-03-06T00:50:11;101139.08;;;-0.83;71.54
40794;BME280;26502;51.886;15.604;2024-03-06T00:55:37;101141.33;;;-0.92;71.68
40794;BME280;26502;51.886;15.604;2024-03-06T01:01:03;101138.66;;;-0.94;71.66
40794;BME280;26502;51.886;15.604;2024-03-06T01:06:29;101136.89;;;-0.95;71.78
40794;BME280;26502;51.886;15.604;2024-03-06T01:11:56;101138.14;;;-0.94;71.89
40794;BME280;26502;51.886;15.604;2024-03-06T01:17:22;101141.40;;;-0.97;71.88
40794;BME280;26502;51.886;15.604;2024-03-06T01:22:48;101145.27;;;-1.03;71.93
40794;BME280;26502;51.886;15.604;2024-03-06T01:28:14;101150.04;;;-1.08;72.04
40794;BME280;26502;51.886;15.604;2024-03-06T01:33:40;101148.00;;;-1.13;72.09
40794;BME280;26502;51.886;15.604;2024-03-06T01:39:06;101149.96;;;-1.19;72.09
40794;BME280;26502;51.886;15.604;2024-03-06T01:44:34;101152.88;;;-1.21;72.34
40794;BME280;26502;51.886;15.604;2024-03-06T01:50:00;101162.08;;;-1.23;72.68
40794;BME280;26502;51.886;15.604;2024-03-06T01:55:27;101166.29;;;-1.14;73.00
40794;BME280;26502;51.886;15.604;2024-03-06T02:00:53;101169.02;;;-1.00;73.17
40794;BME280;26502;51.886;15.604;2024-03-06T02:06:19;101173.94;;;-0.91;73.20
40794;BME280;26502;51.886;15.604;2024-03-06T02:11:47;101172.05;;;-0.82;73.41
40794;BME280;26502;51.886;15.604;2024-03-06T02:17:14;101180.68;;;-0.71;73.39
40794;BME280;26502;51.886;15.604;2024-03-06T02:22:41;101181.20;;;-0.70;73.37
40794;BME280;26502;51.886;15.604;2024-03-06T02:28:07;101178.85;;;-0.66;73.74
40794;BME280;26502;51.886;15.604;2024-03-06T02:33:33;101180.35;;;-0.61;73.84
40794;BME280;26502;51.886;15.604;2024-03-06T02:38:59;101179.11;;;-0.61;74.13
40794;BME280;26502;51.886;15.604;2024-03-06T02:44:25;101191.66;;;-0.63;74.18
40794;BME280;26502;51.886;15.604;2024-03-06T02:49:51;101194.95;;;-0.64;74.48
40794;BME280;26502;51.886;15.604;2024-03-06T02:55:17;101196.06;;;-0.52;74.75
40794;BME280;26502;51.886;15.604;2024-03-06T03:00:43;101194.95;;;-0.47;74.98
40794;BME280;26502;51.886;15.604;2024-03-06T03:06:09;101202.29;;;-0.39;74.91
40794;BME280;26502;51.886;15.604;2024-03-06T03:11:35;101207.83;;;-0.49;74.52
40794;BME280;26502;51.886;15.604;2024-03-06T03:17:02;101214.98;;;-0.57;74.85
40794;BME280;26502;51.886;15.604;2024-03-06T03:22:30;101225.09;;;-0.49;74.98
40794;BME280;26502;51.886;15.604;2024-03-06T03:27:55;101224.12;;;-0.54;75.11
40794;BME280;26502;51.886;15.604;2024-03-06T03:33:22;101227.19;;;-0.58;75.12
40794;BME280;26502;51.886;15.604;2024-03-06T03:38:48;101223.88;;;-0.64;74.95
40794;BME280;26502;51.886;15.604;2024-03-06T03:44:15;101232.24;;;-0.73;75.07
40794;BME280;26502;51.886;15.604;2024-03-06T03:49:41;101233.59;;;-0.75;75.21
40794;BME280;26502;51.886;15.604;2024-03-06T03:55:07;101238.58;;;-0.78;75.36
40794;BME280;26502;51.886;15.604;2024-03-06T04:00:34;101243.09;;;-0.79;75.48
40794;BME280;26502;51.886;15.604;2024-03-06T04:06:00;101246.98;;;-0.77;75.57
40794;BME280;26502;51.886;15.604;2024-03-06T04:11:26;101250.54;;;-0.82;75.59
40794;BME280;26502;51.886;15.604;2024-03-06T04:16:52;101252.74;;;-0.77;75.80
40794;BME280;26502;51.886;15.604;2024-03-06T04:22:19;101253.59;;;-0.78;75.88
40794;BME280;26502;51.886;15.604;2024-03-06T04:27:45;101259.85;;;-0.79;75.95
40794;BME280;26502;51.886;15.604;2024-03-06T04:33:11;101265.86;;;-0.82;76.12
40794;BME280;26502;51.886;15.604;2024-03-06T04:38:41;101271.36;;;-0.79;76.36
40794;BME280;26502;51.886;15.604;2024-03-06T04:44:07;101272.21;;;-0.72;76.55
40794;BME280;26502;51.886;15.604;2024-03-06T04:49:35;101280.28;;;-0.62;76.70
40794;BME280;26502;51.886;15.604;2024-03-06T04:55:01;101282.77;;;-0.61;76.66
40794;BME280;26502;51.886;15.604;2024-03-06T05:00:28;101279.54;;;-0.57;76.89
40794;BME280;26502;51.886;15.604;2024-03-06T05:05:54;101282.20;;;-0.55;76.98
40794;BME280;26502;51.886;15.604;2024-03-06T05:11:20;101288.77;;;-0.57;76.97
40794;BME280;26502;51.886;15.604;2024-03-06T05:16:46;101290.53;;;-0.57;77.15
40794;BME280;26502;51.886;15.604;2024-03-06T05:22:13;101298.94;;;-0.56;77.14
40794;BME280;26502;51.886;15.604;2024-03-06T05:27:40;101299.02;;;-0.59;77.15
40794;BME280;26502;51.886;15.604;2024-03-06T05:33:06;101306.42;;;-0.64;77.27
40794;BME280;26502;51.886;15.604;2024-03-06T05:38:32;101306.25;;;-0.64;77.36
40794;BME280;26502;51.886;15.604;2024-03-06T05:43:58;101312.77;;;-0.60;77.39
40794;BME280;26502;51.886;15.604;2024-03-06T05:49:24;101320.94;;;-0.62;77.57
40794;BME280;26502;51.886;15.604;2024-03-06T05:54:50;101320.17;;;-0.57;77.53
40794;BME280;26502;51.886;15.604;2024-03-06T06:00:19;101320.23;;;-0.55;77.59
40794;BME280;26502;51.886;15.604;2024-03-06T06:05:46;101326.95;;;-0.51;77.65
40794;BME280;26502;51.886;15.604;2024-03-06T06:11:12;101328.27;;;-0.39;77.74
40794;BME280;26502;51.886;15.604;2024-03-06T06:16:39;101335.38;;;-0.34;77.53
40794;BME280;26502;51.886;15.604;2024-03-06T06:22:06;101334.52;;;-0.25;77.80
40794;BME280;26502;51.886;15.604;2024-03-06T06:27:32;101337.80;;;-0.11;77.89
40794;BME280;26502;51.886;15.604;2024-03-06T06:33:00;101349.17;;;-0.02;77.78
40794;BME280;26502;51.886;15.604;2024-03-06T06:38:27;101356.66;;;-0.03;77.66
40794;BME280;26502;51.886;15.604;2024-03-06T06:43:53;101356.52;;;-0.01;77.67
40794;BME280;26502;51.886;15.604;2024-03-06T06:49:18;101359.24;;;-0.05;77.64
40794;BME280;26502;51.886;15.604;2024-03-06T06:54:44;101363.23;;;-0.06;77.82
40794;BME280;26502;51.886;15.604;2024-03-06T07:00:14;101368.55;;;-0.02;77.85
40794;BME280;26502;51.886;15.604;2024-03-06T07:05:43;101376.24;;;0.07;78.10
40794;BME280;26502;51.886;15.604;2024-03-06T07:11:09;101379.66;;;0.19;78.03
40794;BME280;26502;51.886;15.604;2024-03-06T07:16:35;101384.52;;;0.34;78.12
40794;BME280;26502;51.886;15.604;2024-03-06T07:22:07;101388.07;;;0.46;77.99
40794;BME280;26502;51.886;15.604;2024-03-06T07:27:34;101397.70;;;0.47;77.96
40794;BME280;26502;51.886;15.604;2024-03-06T07:33:02;101400.70;;;0.47;78.03
40794;BME280;26502;51.886;15.604;2024-03-06T07:38:29;101404.09;;;0.60;78.09
40794;BME280;26502;51.886;15.604;2024-03-06T07:43:55;101406.45;;;0.73;78.16
40794;BME280;26502;51.886;15.604;2024-03-06T07:49:21;101412.42;;;0.75;77.88
40794;BME280;26502;51.886;15.604;2024-03-06T07:54:47;101413.48;;;0.85;78.15
40794;BME280;26502;51.886;15.604;2024-03-06T08:00:13;101414.60;;;0.97;78.08
40794;BME280;26502;51.886;15.604;2024-03-06T08:05:38;101422.66;;;1.08;78.26
40794;BME280;26502;51.886;15.604;2024-03-06T08:11:04;101426.11;;;1.15;78.24
40794;BME280;26502;51.886;15.604;2024-03-06T08:16:29;101433.80;;;1.24;78.38
40794;BME280;26502;51.886;15.604;2024-03-06T08:21:53;101433.35;;;1.28;78.46
40794;BME280;26502;51.886;15.604;2024-03-06T08:27:19;101433.75;;;1.41;78.56
40794;BME280;26502;51.886;15.604;2024-03-06T08:32:44;101436.69;;;1.38;78.55
40794;BME280;26502;51.886;15.604;2024-03-06T08:38:09;101431.89;;;1.55;78.96
40794;BME280;26502;51.886;15.604;2024-03-06T08:43:34;101436.04;;;1.63;78.95
40794;BME280;26502;51.886;15.604;2024-03-06T08:48:59;101445.63;;;1.82;79.14
40794;BME280;26502;51.886;15.604;2024-03-06T08:54:24;101455.91;;;1.90;78.91
40794;BME280;26502;51.886;15.604;2024-03-06T08:59:49;101456.32;;;2.05;79.08
40794;BME280;26502;51.886;15.604;2024-03-06T09:05:14;101455.36;;;2.24;79.28
40794;BME280;26502;51.886;15.604;2024-03-06T09:10:39;101457.70;;;2.40;79.22
40794;BME280;26502;51.886;15.604;2024-03-06T09:16:05;101463.80;;;2.52;79.23
40794;BME280;26502;51.886;15.604;2024-03-06T09:21:30;101462.75;;;2.66;79.18
40794;BME280;26502;51.886;15.604;2024-03-06T09:26:54;101469.39;;;2.76;79.09
40794;BME280;26502;51.886;15.604;2024-03-06T09:32:19;101472.96;;;2.83;79.04
40794;BME280;26502;51.886;15.604;2024-03-06T09:37:47;101478.28;;;3.02;79.30
40794;BME280;26502;51.886;15.604;2024-03-06T09:43:12;101475.70;;;3.22;79.36
40794;BME280;26502;51.886;15.604;2024-03-06T09:48:46;101476.02;;;3.55;79.51
40794;BME280;26502;51.886;15.604;2024-03-06T09:54:11;101475.77;;;3.88;79.05
40794;BME280;26502;51.886;15.604;2024-03-06T09:59:38;101476.71;;;4.22;78.82
40794;BME280;26502;51.886;15.604;2024-03-06T10:05:08;101479.86;;;4.48;78.53
40794;BME280;26502;51.886;15.604;2024-03-06T10:10:45;101484.23;;;4.44;77.90
40794;BME280;26502;51.886;15.604;2024-03-06T10:16:12;101484.01;;;4.36;77.76
40794;BME280;26502;51.886;15.604;2024-03-06T10:21:38;101482.92;;;4.61;78.49
40794;BME280;26502;51.886;15.604;2024-03-06T10:27:03;101486.86;;;4.78;77.72
40794;BME280;26502;51.886;15.604;2024-03-06T10:32:28;101483.12;;;4.68;77.51
40794;BME280;26502;51.886;15.604;2024-03-06T10:37:55;101483.15;;;4.76;77.30
40794;BME280;26502;51.886;15.604;2024-03-06T10:43:22;101485.47;;;4.80;77.06
40794;BME280;26502;51.886;15.604;2024-03-06T10:48:48;101482.81;;;4.78;77.32
40794;BME280;26502;51.886;15.604;2024-03-06T10:54:14;101478.55;;;5.12;77.15
40794;BME280;26502;51.886;15.604;2024-03-06T10:59:41;101480.69;;;5.29;76.88
40794;BME280;26502;51.886;15.604;2024-03-06T11:05:08;101482.15;;;5.59;76.89
40794;BME280;26502;51.886;15.604;2024-03-06T11:10:35;101480.25;;;5.99;76.42
40794;BME280;26502;51.886;15.604;2024-03-06T11:16:02;101479.55;;;6.03;76.01
40794;BME280;26502;51.886;15.604;2024-03-06T11:21:31;101469.82;;;6.24;75.67
40794;BME280;26502;51.886;15.604;2024-03-06T11:27:01;101458.14;;;6.38;75.25
40794;BME280;26502;51.886;15.604;2024-03-06T11:32:28;101456.62;;;6.71;75.37
40794;BME280;26502;51.886;15.604;2024-03-06T11:37:55;101450.61;;;7.08;74.84
40794;BME280;26502;51.886;15.604;2024-03-06T11:43:26;101447.51;;;7.26;74.32
40794;BME280;26502;51.886;15.604;2024-03-06T11:48:55;101447.54;;;7.47;73.99
40794;BME280;26502;51.886;15.604;2024-03-06T11:54:22;101443.77;;;7.55;73.74
40794;BME280;26502;51.886;15.604;2024-03-06T11:59:49;101443.69;;;7.64;73.33
40794;BME280;26502;51.886;15.604;2024-03-06T12:05:14;101437.59;;;7.75;72.83
40794;BME280;26502;51.886;15.604;2024-03-06T12:10:39;101440.05;;;7.97;72.74
40794;BME280;26502;51.886;15.604;2024-03-06T12:16:09;101445.21;;;8.29;72.35
40794;BME280;26502;51.886;15.604;2024-03-06T12:21:35;101439.70;;;8.32;71.75
40794;BME280;26502;51.886;15.604;2024-03-06T12:27:02;101443.77;;;8.49;71.70
40794;BME280;26502;51.886;15.604;2024-03-06T12:32:27;101446.98;;;8.48;70.91
40794;BME280;26502;51.886;15.604;2024-03-06T12:37:53;101439.95;;;8.41;70.51
40794;BME280;26502;51.886;15.604;2024-03-06T12:43:18;101436.55;;;8.28;70.14
40794;BME280;26502;51.886;15.604;2024-03-06T12:48:43;101431.67;;;8.38;70.32
40794;BME280;26502;51.886;15.604;2024-03-06T12:54:08;101435.09;;;8.66;70.07
40794;BME280;26502;51.886;15.604;2024-03-06T12:59:33;101430.05;;;8.56;69.41
40794;BME280;26502;51.886;15.604;2024-03-06T13:04:58;101430.17;;;8.28;69.02
40794;BME280;26502;51.886;15.604;2024-03-06T13:10:23;101433.89;;;8.12;69.13
40794;BME280;26502;51.886;15.604;2024-03-06T13:15:48;101438.17;;;7.90;69.01
40794;BME280;26502;51.886;15.604;2024-03-06T13:21:13;101441.77;;;7.63;69.07
40794;BME280;26502;51.886;15.604;2024-03-06T13:26:38;101438.14;;;7.51;69.20
40794;BME280;26502;51.886;15.604;2024-03-06T13:32:05;101435.98;;;7.32;69.36
40794;BME280;26502;51.886;15.604;2024-03-06T13:37:30;101436.20;;;7.25;69.42
40794;BME280;26502;51.886;15.604;2024-03-06T13:42:55;101428.43;;;7.23;69.38
40794;BME280;26502;51.886;15.604;2024-03-06T13:48:20;101429.49;;;7.25;69.21
40794;BME280;26502;51.886;15.604;2024-03-06T13:53:46;101432.86;;;7.23;69.22
40794;BME280;26502;51.886;15.604;2024-03-06T13:59:11;101431.15;;;7.13;69.06
40794;BME280;26502;51.886;15.604;2024-03-06T14:04:36;101430.85;;;7.04;68.84
40794;BME280;26502;51.886;15.604;2024-03-06T14:10:01;101428.72;;;7.07;69.08
40794;BME280;26502;51.886;15.604;2024-03-06T14:15:28;101432.27;;;7.05;68.94
40794;BME280;26502;51.886;15.604;2024-03-06T14:20:53;101430.38;;;6.96;68.77
40794;BME280;26502;51.886;15.604;2024-03-06T14:26:18;101433.80;;;6.82;68.64
40794;BME280;26502;51.886;15.604;2024-03-06T14:31:43;101438.27;;;6.71;68.61
40794;BME280;26502;51.886;15.604;2024-03-06T14:37:08;101440.38;;;6.70;68.54
40794;BME280;26502;51.886;15.604;2024-03-06T14:42:36;101443.20;;;6.71;68.48
40794;BME280;26502;51.886;15.604;2024-03-06T14:48:04;101439.31;;;6.73;68.52
40794;BME280;26502;51.886;15.604;2024-03-06T14:53:29;101444.27;;;6.71;68.30
40794;BME280;26502;51.886;15.604;2024-03-06T14:58:54;101454.37;;;6.61;68.06
40794;BME280;26502;51.886;15.604;2024-03-06T15:04:18;101455.61;;;6.55;68.02
40794;BME280;26502;51.886;15.604;2024-03-06T15:09:44;101462.33;;;6.55;68.03
40794;BME280;26502;51.886;15.604;2024-03-06T15:15:10;101465.32;;;6.56;68.02
40794;BME280;26502;51.886;15.604;2024-03-06T15:20:35;101467.11;;;6.50;68.07
40794;BME280;26502;51.886;15.604;2024-03-06T15:26:00;101469.91;;;6.57;68.19
40794;BME280;26502;51.886;15.604;2024-03-06T15:31:25;101472.55;;;6.53;68.21
40794;BME280;26502;51.886;15.604;2024-03-06T15:36:50;101474.17;;;6.48;68.46
40794;BME280;26502;51.886;15.604;2024-03-06T15:42:15;101475.58;;;6.50;68.62
40794;BME280;26502;51.886;15.604;2024-03-06T15:47:40;101476.13;;;6.44;68.64
40794;BME280;26502;51.886;15.604;2024-03-06T15:53:07;101478.64;;;6.30;68.89
40794;BME280;26502;51.886;15.604;2024-03-06T15:58:32;101484.64;;;6.15;69.26
40794;BME280;26502;51.886;15.604;2024-03-06T16:03:57;101488.00;;;6.13;69.75
40794;BME280;26502;51.886;15.604;2024-03-06T16:09:22;101490.64;;;6.15;69.98
40794;BME280;26502;51.886;15.604;2024-03-06T16:14:46;101490.82;;;6.10;70.16
40794;BME280;26502;51.886;15.604;2024-03-06T16:20:12;101492.41;;;6.06;70.13
40794;BME280;26502;51.886;15.604;2024-03-06T16:25:38;101493.83;;;6.01;70.35
40794;BME280;26502;51.886;15.604;2024-03-06T16:31:03;101491.85;;;5.92;70.45
40794;BME280;26502;51.886;15.604;2024-03-06T16:36:28;101490.80;;;5.81;70.51
40794;BME280;26502;51.886;15.604;2024-03-06T16:41:53;101493.80;;;5.80;70.98
40794;BME280;26502;51.886;15.604;2024-03-06T16:47:18;101498.20;;;5.93;71.26
40794;BME280;26502;51.886;15.604;2024-03-06T16:52:43;101504.20;;;5.93;71.21
40794;BME280;26502;51.886;15.604;2024-03-06T16:58:08;101504.91;;;5.93;71.32
40794;BME280;26502;51.886;15.604;2024-03-06T17:03:35;101504.38;;;5.86;71.50
40794;BME280;26502;51.886;15.604;2024-03-06T17:09:01;101507.91;;;5.84;71.88
40794;BME280;26502;51.886;15.604;2024-03-06T17:14:27;101511.95;;;5.79;72.17
40794;BME280;26502;51.886;15.604;2024-03-06T17:19:53;101511.79;;;5.83;72.48
40794;BME280;26502;51.886;15.604;2024-03-06T17:25:19;101515.12;;;5.84;72.62
40794;BME280;26502;51.886;15.604;2024-03-06T17:30:45;101513.89;;;5.86;73.17
40794;BME280;26502;51.886;15.604;2024-03-06T17:36:11;101514.42;;;5.94;73.59
40794;BME280;26502;51.886;15.604;2024-03-06T17:41:37;101515.34;;;5.99;73.83
40794;BME280;26502;51.886;15.604;2024-03-06T17:47:07;101513.19;;;5.96;74.00
40794;BME280;26502;51.886;15.604;2024-03-06T17:52:33;101514.64;;;6.00;74.40
40794;BME280;26502;51.886;15.604;2024-03-06T17:57:59;101518.52;;;6.00;74.72
40794;BME280;26502;51.886;15.604;2024-03-06T18:03:25;101520.95;;;5.94;74.86
40794;BME280;26502;51.886;15.604;2024-03-06T18:08:51;101520.25;;;5.97;75.31
40794;BME280;26502;51.886;15.604;2024-03-06T18:14:17;101521.50;;;6.00;75.50
40794;BME280;26502;51.886;15.604;2024-03-06T18:19:43;101522.94;;;6.04;75.79
40794;BME280;26502;51.886;15.604;2024-03-06T18:25:12;101526.98;;;6.03;75.84
40794;BME280;26502;51.886;15.604;2024-03-06T18:30:41;101526.62;;;5.97;75.90
40794;BME280;26502;51.886;15.604;2024-03-06T18:36:07;101527.64;;;5.94;76.16
40794;BME280;26502;51.886;15.604;2024-03-06T18:41:33;101526.77;;;5.95;76.33
40794;BME280;26502;51.886;15.604;2024-03-06T18:46:59;101530.29;;;5.90;76.32
40794;BME280;26502;51.886;15.604;2024-03-06T18:52:26;101532.92;;;5.83;76.65
40794;BME280;26502;51.886;15.604;2024-03-06T18:57:54;101533.09;;;5.83;76.92
40794;BME280;26502;51.886;15.604;2024-03-06T19:03:20;101532.94;;;5.76;76.97
40794;BME280;26502;51.886;15.604;2024-03-06T19:08:47;101536.45;;;5.77;77.33
40794;BME280;26502;51.886;15.604;2024-03-06T19:14:14;101546.84;;;5.77;77.41
40794;BME280;26502;51.886;15.604;2024-03-06T19:19:40;101553.54;;;5.70;77.66
40794;BME280;26502;51.886;15.604;2024-03-06T19:25:08;101550.19;;;5.68;77.88
40794;BME280;26502;51.886;15.604;2024-03-06T19:30:34;101557.42;;;5.68;78.07
40794;BME280;26502;51.886;15.604;2024-03-06T19:36:00;101561.30;;;5.71;78.23
40794;BME280;26502;51.886;15.604;2024-03-06T19:41:25;101563.61;;;5.76;78.38
40794;BME280;26502;51.886;15.604;2024-03-06T19:46:51;101567.30;;;5.83;78.57
40794;BME280;26502;51.886;15.604;2024-03-06T19:52:18;101568.90;;;5.84;78.48
40794;BME280;26502;51.886;15.604;2024-03-06T19:57:44;101566.25;;;5.84;78.50
40794;BME280;26502;51.886;15.604;2024-03-06T20:03:10;101574.71;;;5.85;78.71
40794;BME280;26502;51.886;15.604;2024-03-06T20:08:36;101578.06;;;5.87;78.79
40794;BME280;26502;51.886;15.604;2024-03-06T20:14:01;101576.65;;;5.84;78.81
40794;BME280;26502;51.886;15.604;2024-03-06T20:19:27;101576.66;;;5.82;78.94
40794;BME280;26502;51.886;15.604;2024-03-06T20:24:53;101579.29;;;5.78;79.08
40794;BME280;26502;51.886;15.604;2024-03-06T20:30:19;101576.30;;;5.78;79.29
40794;BME280;26502;51.886;15.604;2024-03-06T20:35:46;101574.67;;;5.71;79.34
40794;BME280;26502;51.886;15.604;2024-03-06T20:41:12;101571.70;;;5.69;79.57
40794;BME280;26502;51.886;15.604;2024-03-06T20:46:38;101571.69;;;5.67;79.75
40794;BME280;26502;51.886;15.604;2024-03-06T20:52:07;101576.63;;;5.66;79.94
40794;BME280;26502;51.886;15.604;2024-03-06T20:57:34;101573.98;;;5.64;80.02
40794;BME280;26502;51.886;15.604;2024-03-06T21:03:00;101575.20;;;5.59;80.07
40794;BME280;26502;51.886;15.604;2024-03-06T21:08:25;101581.52;;;5.55;80.31
40794;BME280;26502;51.886;15.604;2024-03-06T21:13:51;101583.29;;;5.53;80.47
40794;BME280;26502;51.886;15.604;2024-03-06T21:19:17;101584.16;;;5.52;80.59
40794;BME280;26502;51.886;15.604;2024-03-06T21:24:44;101587.33;;;5.50;80.66
40794;BME280;26502;51.886;15.604;2024-03-06T21:30:12;101591.20;;;5.48;80.74
40794;BME280;26502;51.886;15.604;2024-03-06T21:35:39;101595.94;;;5.46;80.95
40794;BME280;26502;51.886;15.604;2024-03-06T21:41:05;101595.25;;;5.47;80.99
40794;BME280;26502;51.886;15.604;2024-03-06T21:46:31;101597.35;;;5.45;80.90
40794;BME280;26502;51.886;15.604;2024-03-06T21:51:57;101600.86;;;5.43;80.87
40794;BME280;26502;51.886;15.604;2024-03-06T21:57:23;101607.55;;;5.42;80.79
40794;BME280;26502;51.886;15.604;2024-03-06T22:02:49;101610.72;;;5.38;80.73
40794;BME280;26502;51.886;15.604;2024-03-06T22:08:15;101609.45;;;5.31;80.61
40794;BME280;26502;51.886;15.604;2024-03-06T22:13:41;101613.64;;;5.22;80.51
40794;BME280;26502;51.886;15.604;2024-03-06T22:19:07;101612.37;;;5.15;80.54
40794;BME280;26502;51.886;15.604;2024-03-06T22:24:33;101616.41;;;5.11;80.44
40794;BME280;26502;51.886;15.604;2024-03-06T22:29:59;101617.10;;;5.07;80.74
40794;BME280;26502;51.886;15.604;2024-03-06T22:35:25;101627.27;;;5.03;80.72
40794;BME280;26502;51.886;15.604;2024-03-06T22:40:50;101631.66;;;4.99;80.77
40794;BME280;26502;51.886;15.604;2024-03-06T22:46:18;101634.23;;;4.88;80.84
40794;BME280;26502;51.886;15.604;2024-03-06T22:51:44;101638.59;;;4.81;80.93
40794;BME280;26502;51.886;15.604;2024-03-06T22:57:10;101638.02;;;4.75;80.88
40794;BME280;26502;51.886;15.604;2024-03-06T23:02:36;101637.77;;;4.65;80.85
40794;BME280;26502;51.886;15.604;2024-03-06T23:08:03;101640.48;;;4.51;80.84
40794;BME280;26502;51.886;15.604;2024-03-06T23:13:29;101644.27;;;4.43;80.76
40794;BME280;26502;51.886;15.604;2024-03-06T23:18:56;101647.56;;;4.35;80.82
40794;BME280;26502;51.886;15.604;2024-03-06T23:24:21;101649.90;;;4.23;80.58
40794;BME280;26502;51.886;15.604;2024-03-06T23:29:48;101657.86;;;4.09;80.49
40794;BME280;26502;51.886;15.604;2024-03-06T23:35:14;101659.70;;;3.97;80.54
40794;BME280;26502;51.886;15.604;2024-03-06T23:40:40;101660.16;;;3.92;80.60
40794;BME280;26502;51.886;15.604;2024-03-06T23:46:06;101661.85;;;3.87;80.51
40794;BME280;26502;51.886;15.604;2024-03-06T23:51:32;101657.35;;;3.75;80.33
40794;BME280;26502;51.886;15.604;2024-03-06T23:56:58;101656.36;;;3.68;80.24
